Time;durP1;ratioP1;P1;durP2;ratioP2;P2;SDS_P1;SDS_P2;PMS_P1;PMS_P2;Temp;Humidity;BMP_temperature;BMP_pressure;BME280_temperature;BME280_humidity;BME280_pressure;Samples;Min_cycle;Max_cycle;Signal;HPM_P1;HPM_P2
2023/12/07 00:00:59;;;;;;;;;;;7.40;97.90;;;;;;5057583;28;20403;-85
2023/12/07 00:09:48;;;;;;;;;;;7.40;98.00;;;;;;4999242;28;19928;-85
2023/12/07 00:12:15;;;;;;;;;;;7.40;97.90;;;;;;5001611;28;19909;-87
2023/12/07 00:14:43;;;;;;;;;;;7.30;98.00;;;;;;5008294;28;19906;-86
2023/12/07 00:17:18;;;;;;;;;;;7.30;98.00;;;;;;5025224;28;19968;-87
2023/12/07 00:19:53;;;;;;;;;;;7.30;98.10;;;;;;5008094;28;19928;-86
2023/12/07 00:48:06;;;;;;;;;;;;;;;;;;;;;
2023/12/07 00:50:41;;;;;;;;;;;6.90;98.40;;;;;;4935393;29;19911;-87
2023/12/07 01:27:34;;;;;;;;;;;6.80;97.70;;;;;;5073651;28;19920;-78
2023/12/07 01:30:00;;;;;;;;;;;6.80;97.80;;;;;;5075572;28;19904;-78
2023/12/07 01:32:25;;;;;;;;;;;6.80;97.80;;;;;;5057332;28;19932;-78
2023/12/07 01:34:51;;;;;;;;;;;6.70;97.70;;;;;;5075255;28;19931;-78
2023/12/07 01:37:16;;;;;;;;;;;6.70;97.70;;;;;;5075686;28;20003;-78
2023/12/07 01:39:43;;;;;;;;;;;6.70;97.80;;;;;;5075964;28;19996;-78
2023/12/07 01:42:09;;;;;;;;;;;6.60;97.80;;;;;;5075458;28;20427;-78
2023/12/07 01:44:34;;;;;;;;;;;6.70;97.80;;;;;;5075864;28;19940;-79
2023/12/07 01:47:01;;;;;;;;;;;6.60;97.80;;;;;;5076028;28;20368;-79
2023/12/07 01:49:26;;;;;;;;;;;6.70;98.10;;;;;;5075888;28;19912;-79
2023/12/07 01:51:52;;;;;;;;;;;6.70;97.80;;;;;;5075535;28;19908;-78
2023/12/07 01:54:18;;;;;;;;;;;6.70;97.70;;;;;;5075648;28;19908;-79
2023/12/07 01:56:44;;;;;;;;;;;6.70;97.60;;;;;;5075350;28;19949;-78
2023/12/07 01:59:10;;;;;;;;;;;6.70;97.50;;;;;;5075668;28;20302;-78
2023/12/07 02:01:36;;;;;;;;;;;6.60;97.40;;;;;;5075093;28;20038;-79
2023/12/07 02:04:01;;;;;;;;;;;6.60;97.40;;;;;;5075371;28;19949;-78
2023/12/07 02:06:27;;;;;;;;;;;6.60;97.50;;;;;;5075194;28;19912;-78
2023/12/07 02:08:54;;;;;;;;;;;6.60;97.50;;;;;;5075447;28;19940;-78
2023/12/07 02:11:19;;;;;;;;;;;6.60;97.50;;;;;;5075165;28;20422;-79
2023/12/07 02:13:45;;;;;;;;;;;6.50;97.40;;;;;;5074988;28;19904;-79
2023/12/07 02:16:14;;;;;;;;;;;6.60;97.40;;;;;;5057094;28;19904;-80
2023/12/07 02:19:00;;;;;;;;;;;6.50;97.30;;;;;;5074163;28;19952;-80
2023/12/07 02:21:47;;;;;;;;;;;6.50;97.20;;;;;;5072908;28;19916;-80
2023/12/07 02:24:15;;;;;;;;;;;6.40;97.30;;;;;;5074807;28;19944;-79
2023/12/07 02:26:41;;;;;;;;;;;6.30;97.40;;;;;;5074818;28;19931;-80
2023/12/07 02:29:06;;;;;;;;;;;6.30;97.40;;;;;;5075095;28;19975;-80
2023/12/07 02:31:32;;;;;;;;;;;6.30;97.30;;;;;;5075366;28;19947;-80
2023/12/07 02:33:58;;;;;;;;;;;6.30;97.40;;;;;;5074856;28;19908;-80
2023/12/07 02:36:25;;;;;;;;;;;6.20;97.40;;;;;;5074788;28;20352;-79
2023/12/07 02:38:51;;;;;;;;;;;6.20;97.50;;;;;;5074868;28;19979;-80
2023/12/07 02:41:20;;;;;;;;;;;6.20;97.50;;;;;;5074863;28;20376;-80
2023/12/07 02:43:45;;;;;;;;;;;6.10;97.50;;;;;;5074693;28;19905;-80
2023/12/07 02:46:11;;;;;;;;;;;6.10;97.50;;;;;;5074526;28;20400;-80
2023/12/07 02:48:37;;;;;;;;;;;6.10;97.60;;;;;;5074144;28;19956;-80
2023/12/07 02:51:02;;;;;;;;;;;6.00;97.60;;;;;;5073732;28;19915;-80
2023/12/07 02:53:28;;;;;;;;;;;6.00;97.60;;;;;;5074458;28;19985;-79
2023/12/07 02:55:53;;;;;;;;;;;6.00;97.70;;;;;;5074471;28;19911;-80
2023/12/07 02:58:19;;;;;;;;;;;6.00;97.60;;;;;;5074094;28;19915;-80
2023/12/07 03:00:44;;;;;;;;;;;6.00;97.60;;;;;;5074190;28;20007;-80
2023/12/07 03:03:10;;;;;;;;;;;5.90;97.60;;;;;;5074299;28;19939;-80
2023/12/07 03:05:35;;;;;;;;;;;5.90;97.70;;;;;;5074142;28;20318;-79
2023/12/07 03:08:01;;;;;;;;;;;5.90;97.80;;;;;;5064663;28;19944;-80
2023/12/07 03:10:27;;;;;;;;;;;6.00;97.80;;;;;;5064342;28;20236;-80
2023/12/07 03:12:53;;;;;;;;;;;6.00;97.70;;;;;;5074412;28;19974;-80
2023/12/07 03:15:18;;;;;;;;;;;6.10;97.70;;;;;;5073944;28;19904;-79
2023/12/07 03:17:44;;;;;;;;;;;6.10;97.70;;;;;;5074067;28;19908;-79
2023/12/07 03:20:10;;;;;;;;;;;6.20;97.70;;;;;;5055693;28;20366;-82
2023/12/07 03:22:35;;;;;;;;;;;6.20;97.70;;;;;;5073134;28;19910;-82
2023/12/07 03:25:01;;;;;;;;;;;6.30;97.70;;;;;;5073440;28;20357;-82
2023/12/07 03:27:28;;;;;;;;;;;6.30;97.70;;;;;;5073638;28;20004;-82
2023/12/07 03:29:53;;;;;;;;;;;6.30;97.60;;;;;;5073763;28;19943;-83
2023/12/07 03:32:19;;;;;;;;;;;6.30;97.60;;;;;;5073708;28;19951;-82
2023/12/07 03:34:44;;;;;;;;;;;6.30;97.60;;;;;;5073807;28;19904;-82
2023/12/07 03:37:10;;;;;;;;;;;6.40;97.70;;;;;;5073352;28;19915;-83
2023/12/07 03:39:36;;;;;;;;;;;6.30;97.70;;;;;;5073760;28;20041;-82
2023/12/07 03:42:01;;;;;;;;;;;6.40;97.70;;;;;;5073698;28;20267;-82
2023/12/07 03:44:27;;;;;;;;;;;6.40;97.70;;;;;;5073738;28;19957;-83
2023/12/07 03:46:53;;;;;;;;;;;6.40;97.60;;;;;;5073397;28;19911;-83
2023/12/07 03:49:18;;;;;;;;;;;6.50;97.60;;;;;;5072861;28;19915;-83
2023/12/07 03:51:44;;;;;;;;;;;6.50;97.50;;;;;;5073111;28;19904;-83
2023/12/07 03:54:09;;;;;;;;;;;6.50;97.50;;;;;;5073618;28;19908;-83
2023/12/07 03:56:35;;;;;;;;;;;6.50;97.40;;;;;;5073577;28;19936;-83
2023/12/07 03:59:00;;;;;;;;;;;6.50;97.40;;;;;;5073521;28;19966;-81
2023/12/07 04:01:27;;;;;;;;;;;6.50;97.40;;;;;;5073425;28;19947;-82
2023/12/07 04:03:54;;;;;;;;;;;6.50;97.40;;;;;;5073429;28;19991;-82
2023/12/07 04:06:20;;;;;;;;;;;6.50;97.40;;;;;;5073023;28;19959;-82
2023/12/07 04:08:46;;;;;;;;;;;6.50;97.30;;;;;;5072903;28;19909;-81
2023/12/07 04:11:12;;;;;;;;;;;6.50;97.30;;;;;;5073167;28;19908;-82
2023/12/07 04:13:37;;;;;;;;;;;6.50;97.30;;;;;;5073440;28;19943;-82
2023/12/07 04:16:03;;;;;;;;;;;6.50;97.40;;;;;;5073507;28;20260;-82
2023/12/07 04:18:29;;;;;;;;;;;6.50;97.30;;;;;;5073230;28;19963;-81
2023/12/07 04:20:54;;;;;;;;;;;6.50;97.30;;;;;;5072851;28;19945;-82
2023/12/07 04:23:20;;;;;;;;;;;6.50;97.60;;;;;;5073498;28;20527;-81
2023/12/07 04:25:45;;;;;;;;;;;6.50;97.30;;;;;;5072971;28;20308;-80
2023/12/07 04:28:11;;;;;;;;;;;6.50;97.20;;;;;;5073039;28;19919;-82
2023/12/07 04:30:37;;;;;;;;;;;6.50;97.10;;;;;;5055030;28;19901;-83
2023/12/07 04:33:02;;;;;;;;;;;6.50;97.20;;;;;;5073088;28;19912;-83
2023/12/07 04:35:28;;;;;;;;;;;6.50;97.20;;;;;;5072806;28;19904;-82
2023/12/07 04:37:54;;;;;;;;;;;6.50;97.20;;;;;;5072962;28;19909;-83
2023/12/07 04:40:20;;;;;;;;;;;6.40;97.10;;;;;;5072893;28;20291;-83
2023/12/07 04:42:45;;;;;;;;;;;6.40;97.10;;;;;;5074154;28;19940;-83
2023/12/07 04:45:11;;;;;;;;;;;6.40;97.20;;;;;;5076334;28;19904;-82
2023/12/07 04:47:36;;;;;;;;;;;6.40;97.10;;;;;;5076754;28;19905;-82
2023/12/07 04:50:02;;;;;;;;;;;6.30;97.10;;;;;;5076475;28;19920;-82
2023/12/07 04:52:27;;;;;;;;;;;6.30;97.20;;;;;;5076551;28;19904;-82
2023/12/07 04:54:53;;;;;;;;;;;6.40;97.20;;;;;;5076953;28;19947;-83
2023/12/07 04:57:19;;;;;;;;;;;6.40;97.10;;;;;;5076128;28;19951;-82
2023/12/07 04:59:46;;;;;;;;;;;6.40;97.10;;;;;;5076157;28;19904;-82
2023/12/07 05:02:15;;;;;;;;;;;6.40;97.00;;;;;;5076429;28;19904;-82
2023/12/07 05:04:40;;;;;;;;;;;6.40;97.10;;;;;;5076277;28;19934;-82
2023/12/07 05:07:06;;;;;;;;;;;6.40;97.10;;;;;;5076284;28;19904;-82
2023/12/07 05:09:32;;;;;;;;;;;6.40;97.10;;;;;;5075209;28;19938;-83
2023/12/07 05:11:58;;;;;;;;;;;6.40;97.00;;;;;;5075977;28;19911;-83
2023/12/07 05:14:23;;;;;;;;;;;6.40;97.00;;;;;;5076094;28;19940;-83
2023/12/07 05:16:52;;;;;;;;;;;6.50;97.00;;;;;;5076169;28;19970;-83
2023/12/07 05:19:20;;;;;;;;;;;6.50;97.00;;;;;;5076179;28;19940;-83
2023/12/07 05:21:46;;;;;;;;;;;6.50;97.00;;;;;;5076064;28;20007;-82
2023/12/07 05:24:12;;;;;;;;;;;6.50;97.00;;;;;;5075641;28;19913;-81
2023/12/07 05:26:38;;;;;;;;;;;6.50;97.00;;;;;;5058195;28;19924;-81
2023/12/07 05:29:04;;;;;;;;;;;6.40;96.90;;;;;;5055590;28;19904;-81
2023/12/07 05:31:29;;;;;;;;;;;6.40;96.90;;;;;;5054448;28;20045;-80
2023/12/07 05:33:55;;;;;;;;;;;6.40;96.90;;;;;;5059865;28;20054;-80
2023/12/07 05:36:21;;;;;;;;;;;6.40;97.00;;;;;;5075295;28;20260;-80
2023/12/07 05:38:46;;;;;;;;;;;6.40;97.00;;;;;;5075433;28;19916;-80
2023/12/07 05:41:12;;;;;;;;;;;6.40;96.90;;;;;;5072099;28;19987;-80
2023/12/07 05:43:40;;;;;;;;;;;6.40;96.90;;;;;;5073777;28;19908;-80
2023/12/07 05:46:06;;;;;;;;;;;6.30;96.90;;;;;;5075020;28;20379;-80
2023/12/07 05:48:31;;;;;;;;;;;6.30;97.00;;;;;;5075232;28;19947;-83
2023/12/07 05:50:57;;;;;;;;;;;6.40;97.00;;;;;;5069653;28;19908;-83
2023/12/07 05:53:22;;;;;;;;;;;6.30;96.90;;;;;;5074994;28;19904;-83
2023/12/07 05:55:48;;;;;;;;;;;6.30;96.90;;;;;;5075305;28;19958;-82
2023/12/07 05:58:14;;;;;;;;;;;6.30;96.90;;;;;;5075271;28;19909;-80
2023/12/07 06:00:39;;;;;;;;;;;6.30;97.00;;;;;;5074522;28;19908;-80
2023/12/07 06:03:05;;;;;;;;;;;6.20;97.00;;;;;;5075181;28;20030;-80
2023/12/07 06:05:30;;;;;;;;;;;6.30;97.00;;;;;;5074804;28;19916;-80
2023/12/07 06:07:56;;;;;;;;;;;6.30;97.00;;;;;;5072381;28;19915;-83
2023/12/07 06:10:22;;;;;;;;;;;6.30;97.00;;;;;;5074505;28;19948;-84
2023/12/07 06:12:48;;;;;;;;;;;6.30;96.90;;;;;;5074765;28;19962;-85
2023/12/07 06:15:14;;;;;;;;;;;6.30;96.90;;;;;;5057455;28;19934;-84
2023/12/07 06:17:39;;;;;;;;;;;6.20;96.90;;;;;;5074806;28;20280;-84
2023/12/07 06:20:05;;;;;;;;;;;6.20;96.90;;;;;;5074017;28;19909;-84
2023/12/07 06:22:31;;;;;;;;;;;6.20;97.00;;;;;;5070755;28;19920;-84
2023/12/07 06:24:56;;;;;;;;;;;6.20;97.00;;;;;;5074867;28;19905;-85
2023/12/07 06:27:22;;;;;;;;;;;6.20;97.00;;;;;;5068956;28;20410;-87
2023/12/07 06:29:47;;;;;;;;;;;6.30;97.00;;;;;;5061397;28;20369;-87
2023/12/07 06:32:14;;;;;;;;;;;6.30;97.00;;;;;;5052730;28;19958;-87
2023/12/07 06:34:40;;;;;;;;;;;6.30;97.00;;;;;;5071025;28;19905;-87
2023/12/07 06:37:06;;;;;;;;;;;6.30;97.00;;;;;;5066644;28;19915;-86
2023/12/07 06:39:32;;;;;;;;;;;6.30;97.00;;;;;;5067383;28;19991;-87
2023/12/07 06:41:59;;;;;;;;;;;6.30;96.90;;;;;;5053683;28;19912;-87
2023/12/07 06:44:25;;;;;;;;;;;6.30;96.90;;;;;;5071741;28;19971;-87
2023/12/07 06:46:51;;;;;;;;;;;6.20;96.90;;;;;;5060024;28;19928;-86
2023/12/07 06:49:16;;;;;;;;;;;6.20;96.90;;;;;;5054632;28;19904;-86
2023/12/07 06:51:42;;;;;;;;;;;6.20;97.00;;;;;;5070411;28;19908;-89
2023/12/07 06:54:07;;;;;;;;;;;6.30;97.20;;;;;;5074612;28;19969;-84
2023/12/07 06:56:33;;;;;;;;;;;6.30;97.20;;;;;;5059513;28;20003;-86
2023/12/07 06:58:58;;;;;;;;;;;6.30;97.10;;;;;;5074578;28;20375;-87
2023/12/07 07:01:24;;;;;;;;;;;6.30;97.00;;;;;;5074356;28;20262;-86
2023/12/07 07:03:49;;;;;;;;;;;6.40;97.10;;;;;;5072922;28;20051;-87
2023/12/07 07:06:15;;;;;;;;;;;6.40;97.00;;;;;;5073643;28;19905;-90
2023/12/07 07:08:41;;;;;;;;;;;6.40;96.90;;;;;;5056135;28;19911;-87
2023/12/07 07:11:13;;;;;;;;;;;6.40;97.70;;;;;;5074500;28;20252;-87
2023/12/07 07:13:39;;;;;;;;;;;6.50;97.00;;;;;;5074187;28;19912;-86
2023/12/07 07:16:05;;;;;;;;;;;6.40;96.80;;;;;;5074380;28;19927;-87
2023/12/07 07:18:30;;;;;;;;;;;6.40;96.80;;;;;;5074186;28;20287;-88
2023/12/07 07:20:56;;;;;;;;;;;6.30;96.70;;;;;;5074451;28;20256;-88
2023/12/07 07:23:21;;;;;;;;;;;6.30;96.80;;;;;;5074015;28;19904;-86
2023/12/07 07:25:47;;;;;;;;;;;6.20;96.70;;;;;;5055750;28;19912;-86
2023/12/07 07:28:12;;;;;;;;;;;6.20;96.80;;;;;;5073952;28;19908;-87
2023/12/07 07:30:38;;;;;;;;;;;6.20;96.80;;;;;;5074198;28;19944;-87
2023/12/07 07:33:03;;;;;;;;;;;6.10;96.80;;;;;;5056459;28;19905;-87
2023/12/07 07:35:29;;;;;;;;;;;6.10;96.80;;;;;;5055341;28;19904;-88
2023/12/07 07:37:55;;;;;;;;;;;6.00;96.80;;;;;;5073455;28;19915;-88
2023/12/07 07:40:21;;;;;;;;;;;6.00;96.90;;;;;;5072814;28;19916;-89
2023/12/07 07:42:46;;;;;;;;;;;6.00;96.80;;;;;;5072610;28;19909;-89
2023/12/07 07:45:12;;;;;;;;;;;6.00;96.90;;;;;;5074871;28;19951;-88
2023/12/07 07:47:37;;;;;;;;;;;5.90;96.70;;;;;;5075199;28;19916;-83
2023/12/07 07:50:05;;;;;;;;;;;5.90;96.80;;;;;;5071069;28;19909;-83
2023/12/07 07:52:34;;;;;;;;;;;5.90;96.90;;;;;;5071928;28;19908;-84
2023/12/07 07:55:01;;;;;;;;;;;5.90;96.90;;;;;;5072632;28;19908;-83
2023/12/07 07:57:26;;;;;;;;;;;5.80;96.90;;;;;;5073350;28;19908;-83
2023/12/07 07:59:52;;;;;;;;;;;5.90;97.00;;;;;;5073251;28;19908;-83
2023/12/07 08:02:17;;;;;;;;;;;5.90;97.00;;;;;;5054976;28;19904;-83
2023/12/07 08:04:43;;;;;;;;;;;5.80;97.10;;;;;;5073462;28;20338;-83
2023/12/07 08:07:11;;;;;;;;;;;5.90;97.30;;;;;;5072944;28;20356;-84
2023/12/07 08:09:36;;;;;;;;;;;5.80;97.30;;;;;;5073330;28;19916;-83
2023/12/07 08:12:02;;;;;;;;;;;5.90;97.30;;;;;;5072985;28;19909;-83
2023/12/07 08:14:27;;;;;;;;;;;6.00;97.30;;;;;;5073144;28;19911;-83
2023/12/07 08:16:53;;;;;;;;;;;6.00;97.30;;;;;;5074649;28;19954;-83
2023/12/07 08:19:19;;;;;;;;;;;6.00;97.40;;;;;;5058642;28;20356;-83
2023/12/07 08:21:44;;;;;;;;;;;6.10;97.30;;;;;;5076789;28;20339;-83
2023/12/07 08:24:12;;;;;;;;;;;6.10;97.20;;;;;;5059172;28;20552;-83
2023/12/07 08:26:38;;;;;;;;;;;6.20;97.30;;;;;;5076933;28;20462;-83
2023/12/07 08:29:06;;;;;;;;;;;6.30;97.30;;;;;;5077078;28;20407;-83
2023/12/07 08:31:32;;;;;;;;;;;6.30;97.20;;;;;;5077070;28;19920;-83
2023/12/07 08:33:57;;;;;;;;;;;6.40;97.00;;;;;;5080816;28;20431;-83
2023/12/07 08:36:23;;;;;;;;;;;6.60;97.20;;;;;;5077551;28;19908;-83
2023/12/07 08:38:49;;;;;;;;;;;6.60;97.40;;;;;;5077173;28;19908;-83
2023/12/07 08:41:14;;;;;;;;;;;6.80;97.20;;;;;;5076963;28;19911;-84
2023/12/07 08:43:40;;;;;;;;;;;7.00;97.10;;;;;;5077352;28;19905;-83
2023/12/07 08:46:07;;;;;;;;;;;7.10;96.80;;;;;;5077136;28;20058;-83
2023/12/07 08:48:33;;;;;;;;;;;7.20;96.40;;;;;;5077246;28;20041;-83
2023/12/07 08:50:59;;;;;;;;;;;7.20;96.10;;;;;;5076740;28;20375;-83
2023/12/07 08:53:24;;;;;;;;;;;7.20;96.10;;;;;;5059086;28;19904;-83
2023/12/07 08:55:51;;;;;;;;;;;7.20;96.10;;;;;;5077022;28;19912;-83
2023/12/07 08:58:16;;;;;;;;;;;7.20;95.80;;;;;;5076949;28;19909;-83
2023/12/07 09:00:42;;;;;;;;;;;7.30;96.00;;;;;;5076867;28;19911;-84
2023/12/07 09:03:07;;;;;;;;;;;7.30;96.00;;;;;;5076912;28;19904;-83
2023/12/07 09:05:33;;;;;;;;;;;7.40;95.90;;;;;;5076465;28;19974;-83
2023/12/07 09:07:58;;;;;;;;;;;7.40;96.00;;;;;;5075656;28;19908;-83
2023/12/07 09:10:24;;;;;;;;;;;7.50;96.00;;;;;;5076661;28;19931;-83
2023/12/07 09:12:49;;;;;;;;;;;7.60;96.20;;;;;;5067551;28;19917;-82
2023/12/07 09:15:15;;;;;;;;;;;7.70;96.10;;;;;;5069705;28;19904;-83
2023/12/07 09:17:40;;;;;;;;;;;7.80;95.80;;;;;;5056011;28;19909;-83
2023/12/07 09:20:11;;;;;;;;;;;7.90;95.80;;;;;;5056134;28;19905;-82
2023/12/07 09:22:38;;;;;;;;;;;8.00;95.70;;;;;;5055666;28;19905;-83
2023/12/07 09:25:04;;;;;;;;;;;8.10;95.70;;;;;;5055963;28;19909;-82
2023/12/07 09:27:33;;;;;;;;;;;8.20;95.30;;;;;;5066597;28;19916;-83
2023/12/07 09:29:58;;;;;;;;;;;8.20;95.00;;;;;;5048922;28;20042;-82
2023/12/07 09:32:24;;;;;;;;;;;8.30;95.00;;;;;;5067981;28;19995;-82
2023/12/07 09:34:53;;;;;;;;;;;8.30;94.60;;;;;;5067970;28;19912;-82
2023/12/07 09:37:19;;;;;;;;;;;8.30;94.30;;;;;;5065532;28;20043;-82
2023/12/07 09:39:45;;;;;;;;;;;8.20;94.20;;;;;;5061307;28;20393;-83
2023/12/07 09:42:10;;;;;;;;;;;8.20;94.40;;;;;;5055560;28;20007;-88
2023/12/07 09:44:36;;;;;;;;;;;8.20;94.40;;;;;;5074634;28;20237;-88
2023/12/07 09:47:01;;;;;;;;;;;8.30;94.30;;;;;;5066427;28;19927;-89
2023/12/07 09:49:27;;;;;;;;;;;8.40;94.40;;;;;;5070366;28;19911;-88
2023/12/07 09:51:54;;;;;;;;;;;8.40;94.20;;;;;;5055769;28;19909;-88
2023/12/07 09:54:20;;;;;;;;;;;8.50;94.20;;;;;;5055397;28;19916;-88
2023/12/07 09:56:45;;;;;;;;;;;8.50;94.20;;;;;;5058364;28;19905;-89
2023/12/07 09:59:11;;;;;;;;;;;8.60;94.10;;;;;;5059287;28;19917;-89
2023/12/07 10:01:38;;;;;;;;;;;8.60;94.40;;;;;;5058954;28;19913;-88
2023/12/07 10:04:17;;;;;;;;;;;8.70;94.00;;;;;;5068092;28;19915;-88
2023/12/07 10:06:45;;;;;;;;;;;8.80;94.20;;;;;;5075140;28;19912;-88
2023/12/07 10:09:14;;;;;;;;;;;8.90;94.30;;;;;;5058996;28;19915;-88
2023/12/07 10:11:40;;;;;;;;;;;9.10;94.00;;;;;;5055772;28;19917;-88
2023/12/07 10:14:09;;;;;;;;;;;9.20;94.00;;;;;;5037056;28;19958;-87
2023/12/07 10:16:35;;;;;;;;;;;9.30;94.00;;;;;;5072781;28;19911;-87
2023/12/07 10:19:21;;;;;;;;;;;9.50;94.00;;;;;;5075181;28;19962;-88
2023/12/07 10:21:52;;;;;;;;;;;9.70;93.80;;;;;;5057453;28;19935;-88
2023/12/07 10:24:19;;;;;;;;;;;9.90;93.60;;;;;;5075165;28;19911;-88
2023/12/07 10:26:45;;;;;;;;;;;10.20;93.50;;;;;;5048203;28;19960;-88
2023/12/07 10:29:12;;;;;;;;;;;10.50;93.30;;;;;;5063214;28;19904;-87
2023/12/07 10:31:39;;;;;;;;;;;10.70;92.40;;;;;;5056739;28;19916;-85
2023/12/07 10:34:06;;;;;;;;;;;10.90;91.60;;;;;;5058597;28;20358;-83
2023/12/07 10:36:33;;;;;;;;;;;10.90;90.80;;;;;;5054377;28;20003;-87
2023/12/07 10:38:59;;;;;;;;;;;11.00;91.40;;;;;;5069593;28;19913;-87
2023/12/07 10:41:25;;;;;;;;;;;11.20;91.70;;;;;;5065561;28;19904;-87
2023/12/07 10:43:58;;;;;;;;;;;11.40;90.80;;;;;;5074669;28;19905;-86
2023/12/07 10:46:26;;;;;;;;;;;11.50;91.10;;;;;;5074678;28;20268;-86
2023/12/07 10:48:56;;;;;;;;;;;11.60;89.30;;;;;;5074121;28;19911;-87
2023/12/07 10:51:48;;;;;;;;;;;11.60;89.00;;;;;;5074578;28;19911;-88
2023/12/07 10:54:15;;;;;;;;;;;11.60;88.80;;;;;;5070051;28;19943;-87
2023/12/07 10:56:45;;;;;;;;;;;11.60;90.20;;;;;;5057795;28;19908;-87
2023/12/07 10:59:15;;;;;;;;;;;11.80;90.00;;;;;;5054693;28;20027;-87
2023/12/07 11:01:44;;;;;;;;;;;12.00;90.40;;;;;;5054071;28;20398;-87
2023/12/07 11:04:12;;;;;;;;;;;12.20;90.30;;;;;;5057470;28;19924;-83
2023/12/07 11:06:39;;;;;;;;;;;12.20;86.80;;;;;;5056092;28;20383;-87
2023/12/07 11:09:08;;;;;;;;;;;12.20;89.00;;;;;;5074209;28;19905;-87
2023/12/07 11:11:33;;;;;;;;;;;12.40;89.80;;;;;;5074202;28;19950;-87
2023/12/07 11:14:03;;;;;;;;;;;12.60;89.20;;;;;;5074067;28;19904;-82
2023/12/07 11:16:34;;;;;;;;;;;12.70;87.00;;;;;;5056610;28;19904;-87
2023/12/07 11:19:00;;;;;;;;;;;12.80;88.80;;;;;;5074711;28;19909;-87
2023/12/07 11:21:27;;;;;;;;;;;12.90;85.50;;;;;;5056309;28;19910;-86
2023/12/07 11:23:53;;;;;;;;;;;12.90;84.70;;;;;;5074386;28;19908;-82
2023/12/07 11:26:20;;;;;;;;;;;12.70;85.10;;;;;;5052633;28;19921;-83
2023/12/07 11:40:44;;;;;;;9.67;8.23;;;12.80;87.10;;;;;;6266549;22;1365924;-96
2023/12/07 11:43:37;;;;;;;9.90;8.90;;;17.80;83.10;;;;;;6286931;22;20274;-95
2023/12/07 11:46:04;;;;;;;10.10;8.85;;;18.90;78.50;;;;;;6285922;22;20008;-96
2023/12/07 11:48:30;;;;;;;10.35;9.25;;;19.90;73.90;;;;;;6285355;22;20012;-94
2023/12/07 11:51:01;;;;;;;11.93;10.73;;;20.70;70.40;;;;;;6285036;22;20003;-94
2023/12/07 11:53:29;;;;;;;14.30;11.85;;;21.30;67.80;;;;;;6285562;22;20014;-94
2023/12/07 11:55:58;;;;;;;12.73;10.40;;;21.80;65.00;;;;;;6286147;22;20010;-94
2023/12/07 11:58:28;;;;;;;10.82;9.73;;;22.20;64.30;;;;;;6286535;22;20079;-95
2023/12/07 12:00:56;;;;;;;11.15;10.05;;;22.50;62.80;;;;;;6286590;22;20086;-95
2023/12/07 12:03:25;;;;;;;10.35;9.35;;;22.80;61.60;;;;;;6286081;22;20050;-95
2023/12/07 12:05:52;;;;;;;10.95;9.38;;;23.00;59.60;;;;;;6288118;22;20026;-95
2023/12/07 12:08:20;;;;;;;15.82;14.07;;;22.80;56.40;;;;;;6286788;22;20004;-95
2023/12/07 12:10:49;;;;;;;11.45;10.27;;;22.40;55.20;;;;;;6285591;22;20003;-95
2023/12/07 12:13:17;;;;;;;11.60;10.47;;;22.20;56.50;;;;;;6286954;22;20329;-91
2023/12/07 12:15:44;;;;;;;10.30;9.20;;;22.00;56.40;;;;;;6286636;22;20003;-90
2023/12/07 12:18:10;;;;;;;12.07;10.77;;;21.60;56.10;;;;;;6283638;22;20007;-90
2023/12/07 12:20:37;;;;;;;11.57;9.68;;;21.50;58.10;;;;;;6284342;22;20086;-90
2023/12/07 12:23:03;;;;;;;10.25;9.15;;;21.30;57.00;;;;;;6284530;22;20494;-90
2023/12/07 12:25:31;;;;;;;13.10;10.00;;;21.10;57.40;;;;;;6285524;22;20003;-89
2023/12/07 12:28:06;;;;;;;13.07;11.38;;;21.00;59.70;;;;;;6288891;22;20480;-90
2023/12/07 12:30:34;;;;;;;9.30;8.40;;;20.90;58.30;;;;;;6287198;22;19995;-89
2023/12/07 12:33:00;;;;;;;10.57;9.40;;;20.70;59.70;;;;;;6284982;22;20008;-90
2023/12/07 12:35:27;;;;;;;12.00;10.60;;;20.50;60.10;;;;;;6298010;22;20006;-95
2023/12/07 12:37:55;;;;;;;13.68;9.95;;;20.30;60.50;;;;;;6307237;22;20082;-95
2023/12/07 12:40:22;;;;;;;11.80;9.57;;;20.20;61.30;;;;;;6304340;22;20075;-94
2023/12/07 12:42:51;;;;;;;10.25;9.23;;;20.10;61.60;;;;;;6288778;22;20383;-87
2023/12/07 12:45:19;;;;;;;10.57;9.00;;;20.00;62.10;;;;;;6280775;22;20000;-88
2023/12/07 12:47:46;;;;;;;11.35;8.57;;;20.10;62.10;;;;;;6278478;22;20028;-88
2023/12/07 12:50:40;;;;;;;11.90;10.70;;;19.90;59.90;;;;;;6278387;22;20087;-88
2023/12/07 12:53:09;;;;;;;9.80;8.80;;;19.40;59.10;;;;;;6278164;22;19996;-88
2023/12/07 12:55:40;;;;;;;8.15;6.82;;;19.20;62.10;;;;;;6278103;22;20000;-88
2023/12/07 12:58:08;;;;;;;10.23;9.23;;;19.10;61.60;;;;;;6276248;22;20337;-88
2023/12/07 13:00:41;;;;;;;10.27;9.18;;;19.10;62.60;;;;;;6277740;22;20004;-88
2023/12/07 13:03:08;;;;;;;10.77;9.57;;;19.10;61.60;;;;;;6277368;22;20030;-87
2023/12/07 13:05:37;;;;;;;11.65;9.85;;;19.10;62.80;;;;;;6277462;22;20516;-87
2023/12/07 13:08:05;;;;;;;10.40;9.35;;;19.20;62.80;;;;;;6275922;22;20007;-87
2023/12/07 13:10:31;;;;;;;13.18;9.48;;;19.20;62.80;;;;;;6277865;22;20078;-87
2023/12/07 13:12:58;;;;;;;11.00;9.95;;;19.20;62.10;;;;;;6278093;22;20010;-88
2023/12/07 13:15:29;;;;;;;9.85;8.85;;;19.10;62.30;;;;;;6279027;22;20322;-90
2023/12/07 13:17:56;;;;;;;10.35;9.35;;;18.90;62.30;;;;;;6276267;22;20083;-89
2023/12/07 13:20:23;;;;;;;11.68;9.98;;;18.70;62.70;;;;;;6276476;22;20372;-88
2023/12/07 13:22:50;;;;;;;10.45;9.35;;;18.30;62.70;;;;;;6278204;22;20027;-88
2023/12/07 13:25:15;;;;;;;12.57;11.20;;;17.90;63.40;;;;;;6277731;22;20020;-88
2023/12/07 13:27:42;;;;;;;11.43;9.70;;;17.50;63.70;;;;;;6278487;22;20372;-87
2023/12/07 13:30:12;;;;;;;10.00;8.68;;;17.00;64.50;;;;;;6277436;22;20003;-96
2023/12/07 13:32:39;;;;;;;9.57;8.57;;;16.60;65.40;;;;;;6277281;22;20000;-87
2023/12/07 13:35:07;;;;;;;10.00;9.00;;;16.30;65.80;;;;;;6276791;22;20071;-88
2023/12/07 13:37:34;;;;;;;10.82;8.45;;;16.00;66.80;;;;;;6277289;22;20000;-87
2023/12/07 13:40:03;;;;;;;11.68;9.68;;;15.80;67.70;;;;;;6297407;22;20011;-88
2023/12/07 13:42:30;;;;;;;13.18;9.57;;;15.50;68.70;;;;;;6308484;22;20015;-88
2023/12/07 13:45:00;;;;;;;9.65;8.65;;;15.30;69.70;;;;;;6279962;22;20417;-87
2023/12/07 13:47:31;;;;;;;10.35;9.32;;;15.20;70.70;;;;;;6280587;22;20008;-91
2023/12/07 13:50:01;;;;;;;9.43;8.43;;;15.00;71.40;;;;;;6308886;22;20008;-94
2023/12/07 13:52:29;;;;;;;10.70;9.45;;;14.80;72.10;;;;;;6282936;22;20003;-96
2023/12/07 13:54:56;;;;;;;10.00;8.88;;;14.60;72.70;;;;;;6284075;22;20094;-93
2023/12/07 13:57:27;;;;;;;11.85;9.48;;;14.50;73.30;;;;;;6283913;22;20003;-93
2023/12/07 13:59:54;;;;;;;11.88;10.07;;;14.40;73.70;;;;;;6283334;22;20090;-94
2023/12/07 14:02:20;;;;;;;11.68;9.68;;;14.20;74.10;;;;;;6282984;22;20035;-94
2023/12/07 14:04:49;;;;;;;11.05;9.73;;;14.10;74.60;;;;;;6282606;22;20026;-93
2023/12/07 14:07:20;;;;;;;10.68;9.45;;;14.00;75.10;;;;;;6282792;22;20003;-94
2023/12/07 14:09:49;;;;;;;10.38;9.27;;;13.90;75.50;;;;;;6282977;22;20007;-93
2023/12/07 14:12:16;;;;;;;10.82;9.73;;;13.80;75.90;;;;;;6282864;22;19999;-93
2023/12/07 14:14:46;;;;;;;11.18;9.98;;;13.70;76.30;;;;;;6282062;22;20007;-91
2023/12/07 14:17:18;;;;;;;12.65;10.00;;;13.70;76.80;;;;;;6282307;22;20003;-94
2023/12/07 14:19:44;;;;;;;12.60;11.23;;;13.60;77.20;;;;;;6283144;22;20052;-94
2023/12/07 14:22:12;;;;;;;10.85;9.75;;;13.40;77.40;;;;;;6282480;22;20007;-88
2023/12/07 14:24:39;;;;;;;11.48;10.27;;;13.40;78.00;;;;;;6283042;22;20017;-90
2023/12/07 14:27:06;;;;;;;11.68;10.45;;;13.30;78.20;;;;;;6310512;22;19999;-94
2023/12/07 14:29:33;;;;;;;11.73;9.98;;;13.20;78.50;;;;;;6282341;22;20007;-89
2023/12/07 14:32:01;;;;;;;13.18;10.65;;;13.10;78.80;;;;;;6307388;22;20427;-86
2023/12/07 14:34:27;;;;;;;11.60;10.40;;;13.10;79.00;;;;;;6307217;22;19999;-87
2023/12/07 14:36:53;;;;;;;11.95;10.38;;;13.00;79.30;;;;;;6279960;22;20011;-87
2023/12/07 14:39:19;;;;;;;11.95;10.35;;;13.00;79.80;;;;;;6275017;22;20094;-87
2023/12/07 14:41:53;;;;;;;13.52;11.60;;;12.90;80.00;;;;;;6275366;22;20008;-86
2023/12/07 14:44:20;;;;;;;12.30;10.85;;;12.90;80.50;;;;;;6273874;22;20422;-87
2023/12/07 14:46:47;;;;;;;14.23;10.57;;;12.80;80.80;;;;;;6275951;22;20053;-87
2023/12/07 14:49:16;;;;;;;11.55;9.68;;;12.70;81.30;;;;;;6275742;22;20038;-86
2023/12/07 14:51:42;;;;;;;14.38;11.38;;;12.70;81.80;;;;;;6275190;22;20004;-87
2023/12/07 14:54:10;;;;;;;10.75;9.60;;;12.60;82.30;;;;;;6277329;22;20020;-92
2023/12/07 14:56:37;;;;;;;11.45;10.25;;;12.60;83.00;;;;;;6276317;22;20010;-91
2023/12/07 14:59:04;;;;;;;12.48;11.02;;;12.50;83.20;;;;;;6276804;22;20008;-92
2023/12/07 15:01:30;;;;;;;12.48;10.95;;;12.50;83.50;;;;;;6275799;22;20012;-91
2023/12/07 15:03:59;;;;;;;12.23;10.73;;;12.40;83.70;;;;;;6277813;22;20000;-92
2023/12/07 15:06:29;;;;;;;14.02;11.63;;;12.40;84.20;;;;;;6275730;22;20502;-90
2023/12/07 15:08:56;;;;;;;;;;;12.30;84.60;;;;;;6275720;22;20082;-87
2023/12/07 15:11:24;;;;;;;12.15;10.93;;;12.20;84.80;;;;;;6274245;22;19899;-88
2023/12/07 15:13:50;;;;;;;12.68;10.93;;;12.10;85.10;;;;;;6273742;22;20310;-86